Terminal Aerodrome Forecast
Issued by NWS Portland, OR

Home | Current Version | Previous Version | Text Only | Print | Product List | Glossary On
Versions: 1 2 3 4 5 6 7 8 9 10 11 12 13 14 15
000
FTUS46 KPQR 200821 AAA
TAFTTD
TAF AMD
KTTD 200821Z 2008/2106 09008KT P6SM -RA BKN018 OVC025
     FM201000 11007KT 6SM -RA BR BKN015 OVC025
     FM201200 19007KT P6SM -RA SCT008 BKN015 OVC025
     FM201500 18005KT P6SM VCSH SCT008 BKN015 OVC035
     FM201900 22005KT P6SM SCT020 BKN035 OVC045
     FM210000 25003KT P6SM SCT040 OVC070=

USA.gov is the U.S. government's official web portal to all federal, state and local government web resources and services.